createdAt,value
2023-01-12T00:03:11.796Z,15.07
2023-01-12T00:08:13.637Z,12.50
2023-01-12T00:13:15.261Z,8.65
2023-01-12T00:18:16.863Z,8.73
2023-01-12T00:23:19.671Z,9.98
2023-01-12T00:28:21.299Z,7.35
2023-01-12T00:33:22.924Z,8.90
2023-01-12T00:38:24.821Z,9.43
2023-01-12T00:43:45.181Z,9.77
2023-01-12T00:48:47.006Z,9.93
2023-01-12T00:53:49.751Z,10.27
2023-01-12T00:58:51.363Z,7.53
2023-01-12T01:03:53.000Z,10.68
2023-01-12T01:08:55.293Z,13.10
2023-01-12T01:13:57.087Z,13.85
2023-01-12T01:18:59.452Z,8.60
2023-01-12T01:24:01.150Z,11.32
2023-01-12T01:29:02.755Z,8.25
2023-01-12T01:34:04.366Z,7.55
2023-01-12T01:39:06.007Z,9.70
2023-01-12T01:44:29.596Z,6.70
2023-01-12T01:49:55.841Z,8.32
2023-01-12T01:55:10.608Z,8.50
2023-01-12T02:00:13.224Z,7.13
2023-01-12T02:05:19.022Z,11.02
2023-01-12T02:10:21.331Z,8.80
2023-01-12T02:15:45.053Z,8.93
2023-01-12T02:21:05.239Z,12.77
2023-01-12T02:26:38.205Z,10.82
2023-01-12T02:31:54.622Z,10.10
2023-01-12T02:36:58.911Z,6.28
2023-01-12T02:42:25.391Z,11.23
2023-01-12T02:47:58.689Z,7.75
2023-01-12T02:53:07.098Z,7.47
2023-01-12T02:58:12.391Z,9.48
2023-01-12T03:03:17.227Z,9.77
2023-01-12T03:08:23.730Z,8.02
2023-01-12T03:13:28.986Z,9.30
2023-01-12T03:18:34.638Z,6.55
2023-01-12T03:24:03.271Z,11.57
2023-01-12T03:29:30.569Z,13.00
2023-01-12T03:34:33.376Z,15.35
2023-01-12T03:39:53.909Z,9.88
2023-01-12T03:45:15.942Z,10.60
2023-01-12T03:50:23.837Z,10.38
2023-01-12T03:55:29.967Z,8.55
2023-01-12T04:00:32.016Z,11.52
2023-01-12T04:05:33.848Z,8.38
2023-01-12T04:10:36.000Z,7.43
2023-01-12T04:15:42.359Z,8.43
2023-01-12T04:20:44.095Z,9.45
2023-01-12T04:25:45.733Z,9.85
2023-01-12T04:30:47.352Z,12.05
2023-01-12T04:35:48.980Z,10.40
2023-01-12T04:40:54.763Z,8.93
2023-01-12T04:45:56.443Z,9.75
2023-01-12T04:51:00.683Z,15.52
2023-01-12T04:56:07.158Z,12.18
2023-01-12T05:01:14.370Z,9.75
2023-01-12T05:06:16.038Z,8.35
2023-01-12T05:11:17.760Z,7.47
2023-01-12T05:16:19.579Z,8.75
2023-01-12T05:21:22.425Z,7.40
2023-01-12T05:26:24.078Z,9.07
2023-01-12T05:31:25.704Z,6.05
2023-01-12T05:36:27.313Z,5.47
2023-01-12T05:41:28.995Z,7.95
2023-01-12T05:46:33.397Z,9.80
2023-01-12T05:51:35.004Z,11.25
2023-01-12T05:56:36.693Z,6.63
2023-01-12T06:01:40.391Z,5.63
2023-01-12T06:06:42.333Z,4.40
2023-01-12T06:12:02.216Z,5.38
2023-01-12T06:17:03.883Z,8.43
2023-01-12T06:22:07.684Z,25.20
2023-01-12T06:27:09.351Z,44.60
2023-01-12T06:32:11.179Z,35.95
2023-01-12T06:37:13.086Z,11.00
2023-01-12T06:42:29.579Z,11.35
2023-01-12T06:47:31.503Z,8.70
2023-01-12T06:52:33.154Z,9.38
2023-01-12T06:57:34.812Z,5.57
2023-01-12T07:02:36.394Z,4.35
2023-01-12T07:07:40.081Z,6.45
2023-01-12T07:12:42.041Z,5.43
2023-01-12T07:17:43.641Z,5.50
2023-01-12T07:22:45.270Z,7.28
2023-01-12T07:27:58.167Z,3.00
2023-01-12T07:33:12.337Z,10.10
2023-01-12T07:38:14.157Z,6.80
2023-01-12T07:43:17.288Z,4.55
2023-01-12T07:48:21.328Z,5.22
2023-01-12T07:53:23.857Z,5.93
2023-01-12T07:58:27.593Z,7.00
2023-01-12T08:03:29.273Z,5.47
2023-01-12T08:08:30.912Z,11.43
2023-01-12T08:13:33.545Z,7.05
2023-01-12T08:18:55.382Z,6.70
2023-01-12T08:24:00.508Z,8.82
2023-01-12T08:29:12.169Z,4.80
2023-01-12T08:34:14.782Z,4.50
2023-01-12T08:39:16.444Z,6.78
2023-01-12T08:44:19.025Z,5.97
2023-01-12T08:49:24.536Z,11.45
2023-01-12T08:54:26.383Z,11.02
2023-01-12T08:59:28.015Z,9.00
2023-01-12T09:04:29.677Z,4.70
2023-01-12T09:09:31.331Z,3.35
2023-01-12T09:14:38.477Z,4.28
2023-01-12T09:19:40.146Z,4.30
2023-01-12T09:24:41.896Z,10.70
2023-01-12T09:29:43.578Z,9.45
2023-01-12T09:34:48.389Z,6.25
2023-01-12T09:39:50.108Z,5.45
2023-01-12T09:45:11.410Z,7.28
2023-01-12T09:50:28.481Z,8.20
2023-01-12T09:55:41.992Z,5.13
2023-01-12T10:00:43.637Z,6.80
2023-01-12T10:06:00.740Z,5.45
2023-01-12T10:11:32.583Z,7.60
2023-01-12T10:17:05.775Z,5.97
2023-01-12T10:22:39.685Z,7.20
2023-01-12T10:27:45.061Z,3.80
2023-01-12T10:32:47.014Z,4.78
2023-01-12T10:37:51.884Z,3.75
2023-01-12T10:43:20.728Z,3.58
2023-01-12T10:48:23.142Z,3.07
2023-01-12T10:53:38.116Z,4.75
2023-01-12T10:58:41.878Z,7.55
2023-01-12T11:03:43.608Z,5.97
2023-01-12T11:08:45.230Z,5.72
2023-01-12T11:13:47.361Z,5.97
2023-01-12T11:18:58.211Z,8.20
2023-01-12T11:24:12.537Z,6.10
2023-01-12T11:29:34.027Z,11.88
2023-01-12T11:34:44.717Z,4.38
2023-01-12T11:39:52.613Z,6.47
2023-01-12T11:45:07.019Z,4.28
2023-01-12T11:50:22.009Z,4.80
2023-01-12T11:55:48.855Z,4.30
2023-01-12T12:01:15.607Z,7.35
2023-01-12T12:06:27.048Z,4.20
2023-01-12T12:11:47.018Z,6.28
2023-01-12T12:17:09.575Z,5.13
2023-01-12T12:22:26.403Z,2.80
2023-01-12T12:27:36.065Z,5.72
2023-01-12T12:33:02.350Z,5.70
2023-01-12T12:38:29.848Z,3.05
2023-01-12T12:43:54.551Z,3.65
2023-01-12T12:49:03.161Z,6.80
2023-01-12T12:54:10.689Z,12.18
2023-01-12T12:59:31.332Z,5.43
2023-01-12T13:04:42.700Z,4.30
2023-01-12T13:09:49.631Z,5.20
2023-01-12T13:15:36.391Z,6.20
2023-01-12T13:20:51.174Z,4.03
2023-01-12T13:25:57.358Z,4.95
2023-01-12T13:31:00.436Z,20.38
2023-01-12T13:36:06.335Z,3.03
2023-01-12T13:41:39.871Z,3.53
2023-01-12T13:46:51.612Z,2.53
2023-01-12T13:52:01.065Z,7.55
2023-01-12T13:57:06.772Z,3.30
2023-01-12T14:02:18.831Z,1.67
2023-01-12T14:07:36.173Z,3.85
2023-01-12T14:13:01.206Z,1.70
2023-01-12T14:18:19.912Z,1.98
2023-01-12T14:23:36.396Z,3.43
2023-01-12T14:28:44.500Z,2.22
2023-01-12T14:33:53.075Z,1.60
2023-01-12T14:38:56.396Z,0.98
2023-01-12T14:44:16.803Z,2.13
2023-01-12T14:49:30.391Z,1.25
2023-01-12T14:54:34.491Z,3.20
2023-01-12T14:59:45.602Z,2.90
2023-01-12T15:05:07.131Z,2.58
2023-01-12T15:10:09.103Z,3.42
2023-01-12T15:15:24.418Z,2.45
2023-01-12T15:20:47.712Z,5.07
2023-01-12T15:25:49.613Z,3.88
2023-01-12T15:30:52.913Z,3.63
2023-01-12T15:35:54.831Z,3.65
2023-01-12T15:40:56.734Z,3.47
2023-01-12T15:45:58.434Z,4.50
2023-01-12T15:51:00.291Z,3.80
2023-01-12T15:56:01.940Z,3.97
2023-01-12T16:01:06.779Z,4.40
2023-01-12T16:06:08.611Z,7.53
2023-01-12T16:11:20.198Z,7.45
2023-01-12T16:16:21.839Z,9.50
2023-01-12T16:21:23.571Z,5.13
2023-01-12T16:26:26.293Z,6.00
2023-01-12T16:31:28.235Z,9.00
2023-01-12T16:36:30.139Z,8.85
2023-01-12T16:41:31.724Z,9.75
2023-01-12T16:46:33.329Z,6.95
2023-01-12T16:51:35.087Z,6.57
2023-01-12T16:56:36.728Z,6.07
2023-01-12T17:01:38.560Z,6.53
2023-01-12T17:06:40.873Z,6.85
2023-01-12T17:11:43.896Z,8.52
2023-01-12T17:16:45.707Z,6.93
2023-01-12T17:21:49.856Z,11.18
2023-01-12T17:26:53.461Z,10.18
2023-01-12T17:32:04.059Z,9.88
2023-01-12T17:37:09.718Z,9.10
2023-01-12T17:42:35.540Z,16.38
2023-01-12T17:47:37.393Z,10.05
2023-01-12T17:52:39.094Z,8.88
2023-01-12T17:57:40.840Z,12.18
2023-01-12T18:02:43.037Z,21.10
2023-01-12T18:07:44.934Z,21.25
2023-01-12T18:12:46.678Z,17.63
2023-01-12T18:17:49.656Z,13.52
2023-01-12T18:22:55.228Z,14.80
2023-01-12T18:27:56.893Z,11.80
2023-01-12T18:32:58.536Z,12.75
2023-01-12T18:38:00.136Z,15.23
2023-01-12T18:43:01.948Z,11.70
2023-01-12T18:48:23.651Z,8.77
2023-01-12T18:53:25.996Z,10.85
2023-01-12T18:58:30.959Z,11.18
2023-01-12T19:03:34.362Z,15.15
2023-01-12T19:08:54.641Z,15.35
2023-01-12T19:14:14.857Z,11.10
2023-01-12T19:19:16.576Z,16.40
2023-01-12T19:24:37.261Z,9.98
2023-01-12T19:29:40.869Z,10.85
2023-01-12T19:34:43.394Z,12.88
2023-01-12T19:40:04.110Z,14.00
2023-01-12T19:45:08.600Z,12.88
2023-01-12T19:50:12.414Z,10.88
2023-01-12T19:55:15.011Z,10.85
2023-01-12T20:00:17.600Z,8.43
2023-01-12T20:05:22.726Z,12.88
2023-01-12T20:10:24.670Z,13.50
2023-01-12T20:15:26.779Z,13.52
2023-01-12T20:20:30.536Z,13.00
2023-01-12T20:25:32.643Z,21.08
2023-01-12T20:30:38.869Z,15.70
2023-01-12T20:35:46.654Z,15.70
2023-01-12T20:40:48.555Z,21.33
2023-01-12T20:45:52.443Z,14.95
2023-01-12T20:50:54.208Z,11.68
2023-01-12T20:55:55.832Z,13.85
2023-01-12T21:00:57.869Z,13.80
2023-01-12T21:06:01.192Z,14.32
2023-01-12T21:11:03.086Z,16.02
2023-01-12T21:16:07.037Z,16.83
2023-01-12T21:21:09.763Z,17.00
2023-01-12T21:26:11.503Z,13.45
2023-01-12T21:31:13.537Z,12.30
2023-01-12T21:36:15.220Z,11.77
2023-01-12T21:41:17.646Z,11.57
2023-01-12T21:46:20.486Z,15.13
2023-01-12T21:51:22.162Z,14.48
2023-01-12T21:56:23.808Z,13.38
2023-01-12T22:01:25.607Z,9.60
2023-01-12T22:06:27.383Z,8.93
2023-01-12T22:11:29.049Z,10.20
2023-01-12T22:16:31.897Z,10.05
2023-01-12T22:21:33.637Z,9.00
2023-01-12T22:26:35.629Z,12.85
2023-01-12T22:31:37.754Z,12.85
2023-01-12T22:36:43.338Z,14.05
2023-01-12T22:41:44.999Z,13.35
2023-01-12T22:46:46.609Z,11.75
2023-01-12T22:51:48.216Z,11.80
2023-01-12T22:56:49.993Z,12.32
2023-01-12T23:01:51.660Z,11.50
2023-01-12T23:06:53.533Z,10.35
2023-01-12T23:11:55.235Z,9.57
2023-01-12T23:16:56.871Z,9.48
2023-01-12T23:22:01.014Z,11.02
2023-01-12T23:27:02.619Z,13.13
2023-01-12T23:32:04.415Z,11.15
2023-01-12T23:37:06.084Z,11.60
2023-01-12T23:42:07.675Z,11.75
2023-01-12T23:47:09.361Z,11.73
2023-01-12T23:52:11.037Z,12.57
2023-01-12T23:57:12.689Z,10.70
